Hopewell Township, New Jersey
Current Conditions -  °F | °C
As of 11:53 PM on Thursday 30 Oct 2014 (Local Time) from KTTN Reporting Station
Clear Clear  
Wind Chill: 41°   Ceiling: Unl
Heat Index: 41°   Visibility: 10mi
Dew Point: 32°   Wind: 3mph
Humidity: 70%   Direction: 320°NW
Pressure: 30.02"   Gusts: NA
Location:  40.3975°N, 74.7746°W
Report Text: KTTN 310353Z AUTO 32003KT 10SM CLR 05/00 A3002 RMK AO2 SLP161 T00500000
Loading
Personal Weather Stations






























Interactive Weather Map New forecast layout! Learn more

10-Day Weather Forecast

Advertisements
Track Severe Weather on mobile